createdAt,value
2022-12-16T00:01:09.278Z,57.10
2022-12-16T00:03:36.355Z,59.70
2022-12-16T00:06:04.455Z,59.35
2022-12-16T00:08:36.444Z,59.85
2022-12-16T00:11:03.566Z,60.10
2022-12-16T00:13:32.205Z,57.40
2022-12-16T00:15:59.320Z,56.20
2022-12-16T00:18:26.062Z,59.75
2022-12-16T00:20:53.726Z,53.28
2022-12-16T00:23:22.384Z,53.20
2022-12-16T00:25:49.075Z,53.90
2022-12-16T00:28:16.544Z,50.40
2022-12-16T00:30:43.831Z,54.40
2022-12-16T00:33:10.257Z,52.78
2022-12-16T00:35:39.473Z,52.53
2022-12-16T00:38:09.648Z,55.38
2022-12-16T00:40:36.316Z,53.63
2022-12-16T00:43:02.883Z,53.13
2022-12-16T00:45:29.913Z,57.30
2022-12-16T00:47:56.413Z,55.50
2022-12-16T00:50:22.792Z,57.05
2022-12-16T00:52:49.293Z,57.63
2022-12-16T00:55:17.974Z,54.75
2022-12-16T00:57:44.537Z,56.03
2022-12-16T01:00:13.111Z,55.10
2022-12-16T01:02:41.164Z,55.78
2022-12-16T01:05:10.138Z,54.38
2022-12-16T01:07:36.649Z,55.60
2022-12-16T01:10:04.445Z,57.08
2022-12-16T01:12:30.914Z,57.47
2022-12-16T01:14:57.544Z,58.20
2022-12-16T01:17:26.009Z,55.58
2022-12-16T01:19:53.079Z,54.08
2022-12-16T01:22:20.959Z,56.83
2022-12-16T01:24:47.498Z,56.28
2022-12-16T01:27:15.310Z,50.35
2022-12-16T01:29:42.357Z,52.03
2022-12-16T01:32:13.466Z,51.92
2022-12-16T01:34:40.397Z,53.70
2022-12-16T01:37:06.785Z,53.85
2022-12-16T01:39:33.199Z,57.53
2022-12-16T01:41:59.577Z,58.13
2022-12-16T01:44:26.634Z,58.58
2022-12-16T01:47:03.566Z,59.08
2022-12-16T01:49:37.587Z,61.95
2022-12-16T01:52:06.099Z,57.63
2022-12-16T01:54:40.149Z,57.03
2022-12-16T01:57:12.456Z,61.95
2022-12-16T02:02:06.012Z,60.30
2022-12-16T02:04:32.892Z,58.15
2022-12-16T02:07:00.509Z,58.88
2022-12-16T02:09:27.118Z,62.42
2022-12-16T02:11:53.434Z,62.30
2022-12-16T02:14:59.043Z,61.95
2022-12-16T02:17:38.085Z,61.80
2022-12-16T02:20:33.230Z,59.15
2022-12-16T02:23:23.827Z,57.63
2022-12-16T02:26:20.477Z,56.05
2022-12-16T02:28:58.557Z,51.17
2022-12-16T02:31:39.055Z,55.55
2022-12-16T02:34:10.661Z,56.53
2022-12-16T02:36:57.026Z,57.45
2022-12-16T02:39:40.958Z,59.92
2022-12-16T02:42:17.283Z,57.80
2022-12-16T02:45:08.367Z,57.92
2022-12-16T02:47:34.809Z,53.08
2022-12-16T02:50:01.292Z,50.97
2022-12-16T02:52:29.980Z,54.80
2022-12-16T02:55:05.131Z,53.17
2022-12-16T02:57:53.805Z,52.33
2022-12-16T03:00:22.165Z,55.95
2022-12-16T03:03:02.042Z,58.78
2022-12-16T03:05:28.447Z,60.47
2022-12-16T03:07:56.773Z,60.90
2022-12-16T03:10:27.189Z,56.03
2022-12-16T03:12:54.425Z,55.05
2022-12-16T03:15:23.577Z,53.70
2022-12-16T03:17:50.911Z,57.88
2022-12-16T03:20:40.884Z,60.97
2022-12-16T03:23:15.256Z,53.80
2022-12-16T03:25:43.516Z,57.53
2022-12-16T03:28:26.817Z,54.33
2022-12-16T03:31:03.588Z,55.17
2022-12-16T03:33:35.508Z,58.95
2022-12-16T03:36:06.858Z,55.13
2022-12-16T03:38:33.721Z,55.00
2022-12-16T03:41:01.019Z,54.92
2022-12-16T03:43:27.665Z,55.67
2022-12-16T03:45:57.313Z,58.47
2022-12-16T03:48:25.765Z,56.53
2022-12-16T03:50:52.175Z,56.00
2022-12-16T03:53:18.620Z,56.83
2022-12-16T03:55:45.108Z,53.90
2022-12-16T03:58:11.473Z,57.08
2022-12-16T04:00:37.870Z,58.22
2022-12-16T04:03:04.522Z,54.50
2022-12-16T04:05:31.147Z,57.13
2022-12-16T04:08:01.759Z,59.63
2022-12-16T04:10:46.950Z,58.80
2022-12-16T04:13:32.105Z,53.63
2022-12-16T04:16:17.583Z,49.65
2022-12-16T04:19:02.480Z,52.90
2022-12-16T04:21:47.500Z,52.38
2022-12-16T04:24:19.512Z,53.72
2022-12-16T04:27:09.260Z,52.03
2022-12-16T04:29:59.974Z,51.40
2022-12-16T04:32:26.657Z,53.50
2022-12-16T04:34:53.250Z,53.35
2022-12-16T04:37:38.003Z,49.70
2022-12-16T04:40:23.263Z,50.17
2022-12-16T04:43:08.562Z,57.03
2022-12-16T04:45:54.095Z,56.45
2022-12-16T04:48:38.821Z,48.70
2022-12-16T04:51:23.944Z,48.50
2022-12-16T04:54:08.671Z,48.00
2022-12-16T04:56:53.450Z,48.97
2022-12-16T04:59:38.336Z,50.78
2022-12-16T05:02:23.489Z,47.35
2022-12-16T05:05:08.364Z,49.03
2022-12-16T05:07:57.893Z,50.20
2022-12-16T05:10:42.657Z,49.42
2022-12-16T05:13:27.529Z,48.65
2022-12-16T05:16:12.532Z,48.05
2022-12-16T05:18:57.389Z,52.58
2022-12-16T05:21:42.201Z,47.80
2022-12-16T05:24:27.636Z,52.03
2022-12-16T05:27:12.697Z,46.33
2022-12-16T05:29:57.745Z,52.78
2022-12-16T05:32:42.837Z,46.13
2022-12-16T05:35:27.625Z,48.50
2022-12-16T05:38:12.460Z,48.95
2022-12-16T05:40:57.167Z,52.05
2022-12-16T05:43:42.074Z,47.55
2022-12-16T05:46:27.945Z,47.85
2022-12-16T05:49:13.183Z,54.17
2022-12-16T05:51:57.902Z,59.83
2022-12-16T05:54:42.560Z,55.47
2022-12-16T05:57:27.646Z,54.60
2022-12-16T06:00:12.521Z,58.30
2022-12-16T06:02:57.481Z,60.75
2022-12-16T06:05:42.686Z,55.97
2022-12-16T06:08:27.520Z,58.10
2022-12-16T06:11:12.383Z,55.63
2022-12-16T06:13:57.281Z,60.20
2022-12-16T06:16:42.136Z,56.58
2022-12-16T06:19:27.301Z,58.85
2022-12-16T06:22:12.171Z,60.95
2022-12-16T06:24:57.063Z,58.90
2022-12-16T06:27:42.048Z,58.00
2022-12-16T06:30:27.645Z,50.28
2022-12-16T06:33:12.327Z,56.40
2022-12-16T06:35:57.339Z,53.53
2022-12-16T06:38:42.346Z,50.78
2022-12-16T06:41:27.190Z,47.35
2022-12-16T06:44:11.901Z,54.97
2022-12-16T06:46:56.811Z,52.63
2022-12-16T06:49:41.517Z,51.28
2022-12-16T06:52:26.585Z,56.00
2022-12-16T06:55:11.496Z,57.22
2022-12-16T06:57:56.650Z,57.63
2022-12-16T07:00:41.575Z,58.10
2022-12-16T07:03:26.527Z,64.38
2022-12-16T07:06:12.459Z,64.60
2022-12-16T07:08:57.596Z,67.38
2022-12-16T07:11:42.710Z,71.72
2022-12-16T07:14:27.730Z,64.82
2022-12-16T07:17:32.587Z,67.60
2022-12-16T07:20:17.880Z,61.17
2022-12-16T07:23:11.835Z,60.45
2022-12-16T07:26:01.037Z,65.03
2022-12-16T07:28:45.684Z,65.68
2022-12-16T07:31:30.570Z,64.45
2022-12-16T07:34:15.412Z,60.55
2022-12-16T07:37:00.509Z,58.70
2022-12-16T07:39:48.726Z,61.83
2022-12-16T07:42:36.156Z,58.60
2022-12-16T07:45:21.130Z,60.35
2022-12-16T07:48:07.447Z,56.45
2022-12-16T07:50:52.542Z,60.42
2022-12-16T07:53:38.751Z,57.53
2022-12-16T07:56:24.678Z,58.53
2022-12-16T07:59:09.912Z,63.42
2022-12-16T08:01:55.344Z,60.03
2022-12-16T08:04:40.523Z,59.42
2022-12-16T08:07:25.411Z,60.55
2022-12-16T08:10:10.437Z,63.05
2022-12-16T08:12:55.442Z,61.17
2022-12-16T08:15:40.554Z,57.40
2022-12-16T08:18:25.668Z,53.83
2022-12-16T08:21:11.192Z,57.53
2022-12-16T08:23:56.273Z,57.40
2022-12-16T08:26:41.544Z,58.83
2022-12-16T08:29:43.819Z,55.40
2022-12-16T08:32:29.639Z,55.35
2022-12-16T08:35:14.911Z,55.10
2022-12-16T08:37:59.959Z,55.58
2022-12-16T08:40:45.178Z,49.88
2022-12-16T08:43:30.364Z,52.85
2022-12-16T08:46:15.742Z,51.67
2022-12-16T08:49:00.738Z,52.90
2022-12-16T08:51:46.155Z,53.38
2022-12-16T08:54:31.191Z,53.28
2022-12-16T08:57:16.602Z,56.13
2022-12-16T09:00:01.963Z,63.20
2022-12-16T09:02:46.864Z,62.60
2022-12-16T09:05:32.195Z,66.78
2022-12-16T09:08:20.759Z,67.47
2022-12-16T09:11:05.751Z,69.25
2022-12-16T09:13:50.788Z,65.07
2022-12-16T09:16:36.472Z,71.43
2022-12-16T09:19:21.467Z,67.03
2022-12-16T09:22:06.592Z,65.05
2022-12-16T09:24:51.409Z,70.78
2022-12-16T09:27:36.442Z,76.85
2022-12-16T09:30:21.350Z,76.95
2022-12-16T09:33:06.473Z,73.68
2022-12-16T09:35:51.215Z,71.07
2022-12-16T09:38:36.151Z,72.95
2022-12-16T09:41:45.511Z,70.00
2022-12-16T09:45:02.518Z,72.00
2022-12-16T09:47:59.430Z,67.82
2022-12-16T09:50:45.398Z,66.68
2022-12-16T09:53:33.791Z,65.03
2022-12-16T09:56:21.824Z,62.53
2022-12-16T09:59:14.549Z,66.10
2022-12-16T10:01:59.784Z,62.35
2022-12-16T10:04:44.777Z,65.60
2022-12-16T10:07:40.460Z,68.13
2022-12-16T10:10:41.719Z,71.40
2022-12-16T10:13:38.440Z,69.88
2022-12-16T10:16:39.720Z,70.38
2022-12-16T10:19:56.245Z,76.82
2022-12-16T10:22:52.403Z,82.10
2022-12-16T10:25:48.705Z,78.60
2022-12-16T10:28:37.292Z,88.65
2022-12-16T10:31:31.817Z,87.88
2022-12-16T10:34:17.351Z,87.05
2022-12-16T10:37:07.448Z,88.68
2022-12-16T10:39:59.725Z,95.63
2022-12-16T10:42:47.149Z,91.18
2022-12-16T10:45:49.010Z,92.30
2022-12-16T10:48:43.821Z,94.93
2022-12-16T10:51:36.916Z,95.10
2022-12-16T10:55:02.174Z,89.85
2022-12-16T10:57:58.145Z,95.75
2022-12-16T11:01:05.830Z,102.47
2022-12-16T11:03:52.912Z,98.47
2022-12-16T11:06:54.420Z,101.60
2022-12-16T11:09:45.369Z,102.18
2022-12-16T11:12:47.979Z,95.05
2022-12-16T11:15:46.472Z,82.93
2022-12-16T11:18:36.830Z,80.63
2022-12-16T11:21:36.352Z,79.53
2022-12-16T11:24:37.496Z,70.63
2022-12-16T11:27:53.434Z,71.70
2022-12-16T11:30:40.770Z,71.15
2022-12-16T11:33:42.123Z,68.30
2022-12-16T11:36:37.363Z,64.75
2022-12-16T11:39:23.057Z,58.50
2022-12-16T11:42:09.185Z,60.47
2022-12-16T11:45:07.363Z,54.35
2022-12-16T11:48:14.498Z,48.83
2022-12-16T11:51:15.815Z,53.78
2022-12-16T11:54:09.997Z,54.35
2022-12-16T11:56:57.656Z,50.40
2022-12-16T12:00:09.436Z,51.72
2022-12-16T12:03:07.430Z,51.88
2022-12-16T12:05:59.398Z,53.35
2022-12-16T12:08:48.925Z,57.03
2022-12-16T12:11:44.005Z,62.78
2022-12-16T12:14:54.604Z,59.92
2022-12-16T12:17:57.622Z,63.55
2022-12-16T12:21:13.427Z,71.72
2022-12-16T12:23:58.515Z,68.07
2022-12-16T12:26:49.719Z,63.15
2022-12-16T12:29:59.874Z,66.30
2022-12-16T12:32:50.356Z,68.43
2022-12-16T12:35:59.648Z,60.88
2022-12-16T12:39:03.649Z,60.25
2022-12-16T12:42:07.570Z,65.13
2022-12-16T12:45:04.726Z,66.90
2022-12-16T12:47:51.675Z,68.05
2022-12-16T12:50:50.245Z,65.45
2022-12-16T12:53:54.096Z,64.95
2022-12-16T12:56:58.155Z,64.18
2022-12-16T12:59:48.133Z,65.40
2022-12-16T13:02:37.602Z,72.13
2022-12-16T13:05:24.699Z,61.65
2022-12-16T13:08:10.211Z,64.90
2022-12-16T13:10:56.511Z,57.97
2022-12-16T13:13:52.290Z,55.28
2022-12-16T13:17:02.467Z,50.35
2022-12-16T13:19:47.155Z,47.42
2022-12-16T13:22:53.281Z,49.30
2022-12-16T13:25:50.719Z,44.85
2022-12-16T13:28:55.679Z,44.53
2022-12-16T13:31:41.104Z,48.00
2022-12-16T13:34:41.182Z,46.03
2022-12-16T13:37:39.958Z,54.13
2022-12-16T13:40:45.264Z,54.58
2022-12-16T13:44:15.106Z,52.83
2022-12-16T13:47:11.890Z,46.03
2022-12-16T13:50:07.169Z,50.38
2022-12-16T13:53:13.557Z,47.67
2022-12-16T13:56:11.570Z,45.03
2022-12-16T13:58:59.938Z,43.92
2022-12-16T14:02:02.534Z,50.65
2022-12-16T14:04:52.024Z,52.10
2022-12-16T14:07:37.597Z,52.47
2022-12-16T14:10:23.707Z,51.55
2022-12-16T14:13:14.155Z,51.60
2022-12-16T14:16:31.264Z,56.03
2022-12-16T14:19:53.891Z,55.78
2022-12-16T14:22:57.313Z,57.07
2022-12-16T14:25:43.069Z,59.47
2022-12-16T14:28:50.480Z,55.67
2022-12-16T14:31:49.161Z,59.80
2022-12-16T14:34:42.201Z,62.13
2022-12-16T14:37:40.717Z,63.88
2022-12-16T14:40:49.031Z,57.15
2022-12-16T14:43:39.168Z,69.43
2022-12-16T14:46:24.827Z,65.40
2022-12-16T14:49:09.932Z,76.55
2022-12-16T14:51:57.005Z,69.50
2022-12-16T14:54:53.803Z,72.25
2022-12-16T14:57:40.186Z,62.20
2022-12-16T15:00:28.112Z,65.97
2022-12-16T15:03:15.179Z,68.30
2022-12-16T15:06:01.502Z,63.95
2022-12-16T15:08:48.663Z,61.30
2022-12-16T15:11:36.850Z,68.18
2022-12-16T15:14:22.438Z,63.83
2022-12-16T15:17:08.842Z,65.65
2022-12-16T15:20:04.068Z,61.72
2022-12-16T15:22:49.326Z,64.63
2022-12-16T15:25:42.378Z,62.20
2022-12-16T15:28:55.886Z,60.58
2022-12-16T15:32:03.914Z,64.18
2022-12-16T15:35:07.958Z,63.10
2022-12-16T15:38:03.801Z,68.50
2022-12-16T15:40:50.613Z,68.40
2022-12-16T15:43:40.814Z,72.32
2022-12-16T15:46:35.004Z,64.45
2022-12-16T15:49:20.018Z,62.47
2022-12-16T15:52:06.180Z,77.88
2022-12-16T15:54:51.336Z,81.20
2022-12-16T15:57:45.148Z,83.55
2022-12-16T16:01:02.771Z,81.72
2022-12-16T16:03:49.516Z,82.93
2022-12-16T16:06:41.275Z,81.20
2022-12-16T16:09:43.333Z,72.70
2022-12-16T16:12:29.190Z,65.37
2022-12-16T16:15:14.225Z,67.25
2022-12-16T16:17:59.677Z,63.90
2022-12-16T16:20:44.718Z,64.90
2022-12-16T16:23:30.172Z,59.97
2022-12-16T16:26:15.420Z,71.00
2022-12-16T16:29:00.535Z,71.43
2022-12-16T16:31:45.619Z,73.45
2022-12-16T16:34:30.931Z,93.35
2022-12-16T16:37:16.831Z,103.85
2022-12-16T16:40:02.685Z,114.35
2022-12-16T16:42:47.775Z,114.22
2022-12-16T16:45:32.853Z,107.70
2022-12-16T16:48:24.901Z,102.63
2022-12-16T16:51:14.524Z,98.95
2022-12-16T16:53:59.663Z,86.63
2022-12-16T16:56:44.871Z,86.32
2022-12-16T16:59:31.027Z,87.55
2022-12-16T17:02:16.467Z,80.65
2022-12-16T17:05:01.511Z,87.22
2022-12-16T17:07:52.111Z,84.10
2022-12-16T17:10:38.527Z,78.18
2022-12-16T17:13:31.584Z,73.60
2022-12-16T17:16:16.688Z,79.13
2022-12-16T17:19:01.448Z,76.13
2022-12-16T17:21:46.716Z,68.95
2022-12-16T17:24:32.013Z,66.85
2022-12-16T17:27:17.047Z,78.57
2022-12-16T17:30:02.335Z,73.90
2022-12-16T17:32:47.502Z,68.93
2022-12-16T17:35:32.561Z,65.65
2022-12-16T17:38:17.671Z,60.28
2022-12-16T17:41:02.500Z,57.20
2022-12-16T17:43:47.325Z,61.47
2022-12-16T17:46:32.361Z,53.55
2022-12-16T17:49:17.741Z,55.45
2022-12-16T17:52:03.390Z,50.65
2022-12-16T17:54:48.231Z,52.03
2022-12-16T17:57:33.316Z,52.38
2022-12-16T18:00:18.268Z,57.67
2022-12-16T18:03:03.664Z,55.40
2022-12-16T18:05:48.725Z,59.90
2022-12-16T18:08:34.013Z,59.90
2022-12-16T18:11:18.796Z,64.57
2022-12-16T18:14:04.163Z,60.88
2022-12-16T18:16:49.362Z,63.85
2022-12-16T18:19:34.890Z,72.75
2022-12-16T18:22:20.593Z,69.05
2022-12-16T18:25:05.657Z,68.88
2022-12-16T18:27:50.631Z,69.07
2022-12-16T18:30:36.072Z,72.35
2022-12-16T18:33:21.190Z,73.07
2022-12-16T18:36:06.207Z,71.15
2022-12-16T18:38:51.169Z,77.10
2022-12-16T18:41:38.395Z,79.82
2022-12-16T18:44:24.360Z,77.63
2022-12-16T18:47:09.451Z,80.18
2022-12-16T18:49:54.634Z,74.43
2022-12-16T18:52:39.332Z,79.80
2022-12-16T18:55:24.876Z,73.20
2022-12-16T18:58:34.795Z,78.32
2022-12-16T19:01:27.098Z,76.55
2022-12-16T19:04:13.293Z,76.78
2022-12-16T19:06:58.417Z,71.30
2022-12-16T19:09:43.321Z,76.38
2022-12-16T19:12:28.245Z,67.70
2022-12-16T19:15:13.230Z,65.65
2022-12-16T19:17:58.277Z,71.00
2022-12-16T19:20:43.841Z,70.45
2022-12-16T19:23:28.959Z,71.80
2022-12-16T19:26:17.868Z,68.40
2022-12-16T19:29:03.928Z,70.70
2022-12-16T19:31:49.066Z,70.68
2022-12-16T19:34:34.024Z,73.82
2022-12-16T19:37:18.938Z,67.85
2022-12-16T19:40:04.033Z,65.53
2022-12-16T19:42:48.920Z,69.72
2022-12-16T19:45:33.927Z,70.25
2022-12-16T19:48:23.784Z,74.18
2022-12-16T19:51:15.647Z,70.45
2022-12-16T19:54:00.750Z,71.73
2022-12-16T19:56:46.516Z,76.35
2022-12-16T19:59:31.226Z,70.22
2022-12-16T20:02:16.156Z,72.18
2022-12-16T20:05:01.321Z,77.75
2022-12-16T20:07:46.229Z,85.93
2022-12-16T20:10:31.189Z,87.05
2022-12-16T20:13:23.832Z,97.07
2022-12-16T20:16:11.955Z,100.47
2022-12-16T20:18:56.799Z,99.80
2022-12-16T20:21:42.296Z,97.43
2022-12-16T20:24:27.771Z,100.38
2022-12-16T20:27:12.827Z,103.50
2022-12-16T20:30:14.445Z,91.22
2022-12-16T20:32:59.721Z,93.40
2022-12-16T20:35:44.710Z,91.80
2022-12-16T20:38:29.604Z,81.50
2022-12-16T20:41:19.847Z,79.95
2022-12-16T20:44:09.931Z,78.57
2022-12-16T20:46:56.142Z,84.03
2022-12-16T20:49:41.829Z,79.97
2022-12-16T20:52:26.849Z,71.80
2022-12-16T20:55:11.714Z,75.93
2022-12-16T20:57:56.673Z,76.68
2022-12-16T21:00:41.957Z,89.20
2022-12-16T21:03:27.623Z,83.35
2022-12-16T21:06:12.600Z,97.88
2022-12-16T21:08:57.521Z,92.03
2022-12-16T21:11:42.805Z,81.15
2022-12-16T21:14:27.905Z,79.18
2022-12-16T21:17:12.806Z,82.20
2022-12-16T21:19:57.761Z,88.60
2022-12-16T21:22:42.852Z,89.82
2022-12-16T21:25:27.573Z,90.60
2022-12-16T21:28:16.375Z,90.15
2022-12-16T21:31:01.548Z,86.72
2022-12-16T21:33:47.107Z,85.22
2022-12-16T21:36:32.109Z,85.78
2022-12-16T21:39:16.985Z,88.38
2022-12-16T21:42:02.022Z,85.90
2022-12-16T21:44:46.795Z,80.90
2022-12-16T21:47:31.751Z,81.72
2022-12-16T21:50:16.932Z,80.10
2022-12-16T21:53:05.158Z,86.88
2022-12-16T21:55:49.902Z,90.70
2022-12-16T21:58:34.742Z,90.45
2022-12-16T22:01:19.697Z,100.68
2022-12-16T22:04:04.831Z,95.22
2022-12-16T22:06:50.107Z,115.82
2022-12-16T22:09:35.405Z,104.97
2022-12-16T22:12:20.747Z,102.28
2022-12-16T22:15:05.863Z,108.03
2022-12-16T22:18:10.522Z,104.38
2022-12-16T22:20:55.601Z,102.78
2022-12-16T22:23:46.505Z,104.28
2022-12-16T22:26:31.581Z,104.00
2022-12-16T22:29:16.923Z,105.60
2022-12-16T22:32:01.932Z,101.97
2022-12-16T22:34:46.625Z,96.93
2022-12-16T22:37:31.341Z,99.70
2022-12-16T22:40:16.295Z,101.80
2022-12-16T22:43:01.041Z,95.07
2022-12-16T22:45:45.838Z,96.30
2022-12-16T22:48:31.074Z,93.60
2022-12-16T22:51:16.111Z,96.10
2022-12-16T22:54:01.145Z,102.00
2022-12-16T22:56:46.213Z,94.95
2022-12-16T22:59:30.967Z,99.65
2022-12-16T23:02:15.755Z,102.03
2022-12-16T23:05:00.906Z,95.55
2022-12-16T23:07:46.037Z,93.50
2022-12-16T23:10:30.980Z,88.85
2022-12-16T23:13:15.629Z,100.05
2022-12-16T23:16:00.663Z,96.32
2022-12-16T23:18:45.695Z,102.85
2022-12-16T23:21:35.036Z,95.53
2022-12-16T23:24:20.001Z,96.72
2022-12-16T23:27:05.023Z,91.78
2022-12-16T23:29:50.192Z,85.65
2022-12-16T23:35:27.423Z,93.38
2022-12-16T23:38:23.346Z,89.88
2022-12-16T23:41:14.844Z,83.47
2022-12-16T23:43:59.590Z,84.03
2022-12-16T23:46:44.478Z,83.78
2022-12-16T23:49:29.522Z,83.18
2022-12-16T23:52:14.432Z,87.32
2022-12-16T23:54:59.630Z,96.38
2022-12-16T23:57:44.385Z,85.63
